Time;durP1;ratioP1;P1;durP2;ratioP2;P2;SDS_P1;SDS_P2;PMS_P1;PMS_P2;Temp;Humidity;BMP_temperature;BMP_pressure;BME280_temperature;BME280_humidity;BME280_pressure;Samples;Min_cycle;Max_cycle;Signal;HPM_P1;HPM_P2
2021/11/11 00:00:19;;;;;;;20.35;10.18;;;;;;;1.55;49.80;101026.83;1695404;84;21011;-34
2021/11/11 00:02:46;;;;;;;18.70;9.88;;;;;;;1.56;49.84;101025.22;1681101;85;21092;-34
2021/11/11 00:05:13;;;;;;;15.83;9.33;;;;;;;1.54;49.88;101019.87;1736129;82;21460;-34
2021/11/11 00:07:39;;;;;;;26.97;9.15;;;;;;;1.51;50.04;101017.70;1736309;82;21511;-34
2021/11/11 00:10:08;;;;;;;19.65;9.33;;;;;;;1.52;50.03;101017.45;1735894;82;20969;-34
2021/11/11 00:12:35;;;;;;;19.70;9.80;;;;;;;1.51;50.15;101017.17;1736281;82;21043;-34
2021/11/11 00:15:04;;;;;;;24.67;10.05;;;;;;;1.55;50.18;101014.80;1736237;82;20993;-34
2021/11/11 00:17:30;;;;;;;21.30;9.35;;;;;;;1.55;50.16;101012.13;1736088;82;21057;-34
2021/11/11 00:19:57;;;;;;;20.90;10.30;;;;;;;1.56;50.19;101007.84;1736065;82;21498;-34
2021/11/11 00:22:24;;;;;;;20.50;10.05;;;;;;;1.56;50.17;101002.50;1735958;82;20993;-34
2021/11/11 00:24:50;;;;;;;19.42;9.30;;;;;;;1.61;50.18;100996.37;1736266;82;21096;-34
2021/11/11 00:27:17;;;;;;;17.65;9.43;;;;;;;1.59;50.20;101001.19;1749566;81;21010;-34
2021/11/11 00:29:45;;;;;;;17.82;9.50;;;;;;;1.54;50.36;100995.81;1766430;81;21021;-34
2021/11/11 00:32:12;;;;;;;22.22;9.43;;;;;;;1.51;50.37;100993.12;1766453;81;21811;-34
2021/11/11 00:34:40;;;;;;;20.10;9.45;;;;;;;1.51;50.53;100994.98;1766436;81;21028;-34
2021/11/11 00:37:07;;;;;;;18.45;9.00;;;;;;;1.48;50.59;100988.30;1766469;81;21063;-34
2021/11/11 00:39:34;;;;;;;18.10;8.93;;;;;;;1.47;50.65;100988.55;1766533;81;21040;-34
2021/11/11 00:42:01;;;;;;;19.48;9.45;;;;;;;1.45;50.69;100978.14;1766470;81;21526;-34
2021/11/11 00:44:28;;;;;;;18.23;9.18;;;;;;;1.44;50.88;100978.39;1746599;81;21115;-34
2021/11/11 00:46:56;;;;;;;19.60;9.33;;;;;;;1.43;50.92;100974.10;1735971;82;20953;-34
2021/11/11 00:49:22;;;;;;;22.75;8.75;;;;;;;1.40;51.07;100971.95;1736166;82;21025;-34
2021/11/11 00:51:50;;;;;;;18.90;9.00;;;;;;;1.41;51.06;100960.19;1736194;82;21515;-34
2021/11/11 00:54:17;;;;;;;17.90;9.08;;;;;;;1.42;51.19;100961.80;1736171;82;21056;-34
2021/11/11 00:56:44;;;;;;;16.95;8.80;;;;;;;1.41;51.21;100961.52;1736262;82;21954;-34
2021/11/11 00:59:12;;;;;;;19.07;8.70;;;;;;;1.36;51.32;100965.50;1736000;82;21473;-34
2021/11/11 01:01:39;;;;;;;15.43;8.43;;;;;;;1.31;51.50;100959.59;1736304;82;20997;-34
2021/11/11 01:04:06;;;;;;;18.92;8.98;;;;;;;1.28;51.60;100958.27;1752156;81;21036;-34
2021/11/11 01:06:34;;;;;;;24.67;8.90;;;;;;;1.25;51.73;100957.45;1754975;81;21043;-34
2021/11/11 01:09:01;;;;;;;27.77;9.15;;;;;;;1.24;51.80;100953.17;1754774;81;21004;-33
2021/11/11 01:11:29;;;;;;;21.80;9.15;;;;;;;1.20;51.99;100947.27;1754714;81;20992;-34
2021/11/11 01:13:56;;;;;;;17.55;9.10;;;;;;;1.19;52.09;100950.47;1755141;81;21259;-34
2021/11/11 01:16:22;;;;;;;18.73;9.20;;;;;;;1.17;52.30;100953.91;1754639;81;20971;-34
2021/11/11 01:18:49;;;;;;;15.35;8.55;;;;;;;1.17;52.39;100953.91;1754982;81;21008;-34
2021/11/11 01:21:16;;;;;;;25.52;9.45;;;;;;;1.15;52.60;100956.06;1754772;81;21946;-34
2021/11/11 01:23:43;;;;;;;17.35;8.98;;;;;;;1.17;52.62;100950.44;1754504;81;20992;-34
2021/11/11 01:26:10;;;;;;;18.35;8.83;;;;;;;1.16;52.68;100954.20;1772702;80;21051;-34
2021/11/11 01:28:40;;;;;;;15.75;8.43;;;;;;;1.17;52.72;100951.25;1754672;81;21533;-34
2021/11/11 01:31:10;;;;;;;19.95;9.00;;;;;;;1.13;52.93;100943.48;1754657;81;20956;-34
2021/11/11 01:33:37;;;;;;;18.42;8.55;;;;;;;1.07;53.03;100939.16;1754478;81;21150;-34
2021/11/11 01:36:05;;;;;;;14.80;8.85;;;;;;;1.07;53.28;100943.16;1748243;81;21004;-34
2021/11/11 01:38:34;;;;;;;13.85;8.40;;;;;;;1.03;53.40;100937.27;1753204;81;20944;-34
2021/11/11 01:41:05;;;;;;;21.77;9.05;;;;;;;1.00;53.66;100931.92;1754332;81;21032;-33
2021/11/11 01:43:34;;;;;;;15.95;8.20;;;;;;;0.96;53.76;100924.16;1755081;81;21095;-33
2021/11/11 01:46:01;;;;;;;16.75;9.55;;;;;;;0.97;53.99;100915.63;1754415;81;21117;-34
2021/11/11 01:48:28;;;;;;;19.02;8.43;;;;;;;0.98;54.07;100920.68;1748718;81;21573;-34
2021/11/11 01:50:57;;;;;;;16.65;9.13;;;;;;;0.96;54.10;100910.81;1754039;81;20949;-33
2021/11/11 01:53:26;;;;;;;18.73;9.98;;;;;;;0.98;54.14;100907.86;1754801;81;21059;-34
2021/11/11 01:55:54;;;;;;;13.28;6.75;;;;;;;0.96;54.29;100908.14;1754755;81;21052;-34
2021/11/11 01:58:23;;;;;;;18.15;8.33;;;;;;;0.98;54.25;100902.52;1754425;81;21174;-34
2021/11/11 02:00:56;;;;;;;19.62;9.25;;;;;;;0.97;54.31;100908.39;1754798;81;21023;-33
2021/11/11 02:03:26;;;;;;;18.37;9.58;;;;;;;0.99;54.22;100894.26;1744554;81;21048;-34
2021/11/11 02:06:10;;;;;;;19.37;8.95;;;;;;;0.98;54.31;100887.83;1736165;82;21052;-34
2021/11/11 02:08:46;;;;;;;14.73;8.35;;;;;;;0.96;54.32;100886.78;1728618;82;21068;-34
2021/11/11 02:11:13;;;;;;;18.98;9.80;;;;;;;0.94;54.42;100885.41;1736402;82;21114;-34
2021/11/11 02:13:40;;;;;;;14.30;8.68;;;;;;;0.93;54.41;100874.45;1736253;82;20988;-34
2021/11/11 02:16:12;;;;;;;16.60;9.10;;;;;;;0.89;54.59;100875.51;1735799;82;21005;-34
2021/11/11 02:18:38;;;;;;;18.25;8.35;;;;;;;0.90;54.63;100868.30;1736498;82;21036;-34
2021/11/11 02:21:05;;;;;;;19.23;9.50;;;;;;;0.84;54.78;100869.61;1736058;82;21012;-34
2021/11/11 02:23:34;;;;;;;17.27;9.08;;;;;;;0.86;54.72;100866.69;1734838;82;21146;-34
2021/11/11 02:26:08;;;;;;;17.90;9.15;;;;;;;0.86;54.66;100866.69;1735340;81;21072;-34
2021/11/11 02:28:40;;;;;;;15.88;8.55;;;;;;;0.86;54.71;100862.69;1734936;82;21671;-34
2021/11/11 02:31:06;;;;;;;18.98;8.88;;;;;;;0.85;54.78;100862.41;1735957;82;21049;-34
2021/11/11 02:33:37;;;;;;;16.73;8.85;;;;;;;0.82;54.95;100855.70;1736045;82;21012;-34
2021/11/11 02:36:05;;;;;;;18.82;8.68;;;;;;;0.81;54.96;100855.45;1736290;82;21140;-34
2021/11/11 02:38:32;;;;;;;19.42;9.28;;;;;;;0.77;55.06;100850.36;1736036;82;21033;-34
2021/11/11 02:41:00;;;;;;;19.82;10.10;;;;;;;0.81;55.04;100849.31;1713141;82;20957;-34
2021/11/11 02:43:28;;;;;;;15.65;8.90;;;;;;;0.83;55.03;100847.17;1736189;82;21061;-34
2021/11/11 02:45:57;;;;;;;17.57;8.90;;;;;;;0.87;54.95;100842.94;1736076;82;21080;-34
2021/11/11 02:48:26;;;;;;;16.17;6.85;;;;;;;0.84;54.95;100845.58;1736155;82;21222;-34
2021/11/11 02:50:54;;;;;;;17.32;8.58;;;;;;;0.82;55.08;100840.25;1736328;82;20980;-34
2021/11/11 02:53:22;;;;;;;18.27;8.73;;;;;;;0.78;55.26;100832.45;1736147;82;21027;-34
2021/11/11 02:55:50;;;;;;;17.70;9.23;;;;;;;0.76;55.36;100831.40;1736187;82;21247;-34
2021/11/11 02:58:17;;;;;;;14.55;8.93;;;;;;;0.72;55.43;100827.64;1736208;82;21554;-34
2021/11/11 03:00:54;;;;;;;15.53;8.38;;;;;;;0.74;55.36;100826.84;1736123;82;21141;-34
2021/11/11 03:03:23;;;;;;;14.70;8.38;;;;;;;0.72;55.47;100825.50;1736330;82;21032;-34
2021/11/11 03:05:50;;;;;;;16.37;8.48;;;;;;;0.72;55.40;100815.63;1736498;82;21506;-34
2021/11/11 03:08:19;;;;;;;16.45;7.85;;;;;;;0.76;55.28;100826.59;1736435;82;20981;-34
2021/11/11 03:10:50;;;;;;;18.77;8.15;;;;;;;0.75;55.25;100812.97;1736336;82;21561;-34
2021/11/11 03:13:19;;;;;;;18.77;8.70;;;;;;;0.74;55.23;100806.81;1737085;82;21082;-34
2021/11/11 03:15:47;;;;;;;17.98;8.65;;;;;;;0.73;55.27;100803.06;1735917;82;20949;-34
2021/11/11 03:18:16;;;;;;;15.83;8.00;;;;;;;0.70;55.29;100791.58;1736148;82;21542;-34
2021/11/11 03:20:42;;;;;;;21.37;8.63;;;;;;;0.65;55.45;100783.02;1736179;82;20965;-34
2021/11/11 03:23:09;;;;;;;19.25;8.98;;;;;;;0.65;55.55;100783.55;1736393;82;21569;-34
2021/11/11 03:25:36;;;;;;;12.68;7.70;;;;;;;0.61;55.60;100779.80;1736005;82;21184;-34
2021/11/11 03:28:05;;;;;;;17.82;8.53;;;;;;;0.61;55.61;100775.80;1735867;81;20984;-34
2021/11/11 03:30:33;;;;;;;29.30;8.55;;;;;;;0.61;55.63;100769.13;1736110;82;21028;-34
2021/11/11 03:33:02;;;;;;;16.50;7.60;;;;;;;0.63;55.62;100769.67;1736298;82;21100;-34
2021/11/11 03:35:30;;;;;;;12.75;7.55;;;;;;;0.58;55.75;100768.31;1735791;82;21056;-35
2021/11/11 03:38:00;;;;;;;14.00;7.42;;;;;;;0.54;55.89;100761.34;1736245;82;21731;-34
2021/11/11 03:40:32;;;;;;;21.77;8.15;;;;;;;0.52;56.02;100762.67;1736062;82;21032;-35
2021/11/11 03:42:59;;;;;;;15.93;7.62;;;;;;;0.50;56.08;100760.78;1736372;82;21546;-34
2021/11/11 03:45:29;;;;;;;18.30;7.58;;;;;;;0.49;56.12;100753.83;1735967;82;21092;-34
2021/11/11 03:47:57;;;;;;;13.90;7.90;;;;;;;0.46;56.14;100759.70;1736213;82;20938;-34
2021/11/11 03:50:25;;;;;;;18.95;7.85;;;;;;;0.40;56.24;100755.66;1736078;82;21082;-33
2021/11/11 03:52:54;;;;;;;16.07;7.50;;;;;;;0.36;56.39;100747.91;1735949;82;21020;-34
2021/11/11 03:55:23;;;;;;;15.03;8.10;;;;;;;0.38;56.43;100749.80;1736210;82;20961;-34
2021/11/11 03:57:51;;;;;;;13.85;7.35;;;;;;;0.36;56.46;100752.44;1736069;82;21088;-34
2021/11/11 04:00:18;;;;;;;13.65;7.55;;;;;;;0.37;56.40;100756.72;1713044;82;21100;-34
2021/11/11 04:02:47;;;;;;;13.72;7.35;;;;;;;0.36;56.47;100758.58;1736352;82;21121;-34
2021/11/11 04:05:15;;;;;;;17.17;8.10;;;;;;;0.36;56.44;100757.24;1748618;81;21007;-34
2021/11/11 04:07:44;;;;;;;19.32;7.78;;;;;;;0.36;56.55;100755.91;1749183;82;20968;-34
2021/11/11 04:10:11;;;;;;;15.23;7.90;;;;;;;0.36;56.47;100745.77;1749959;82;21001;-34
2021/11/11 04:12:38;;;;;;;13.85;7.47;;;;;;;0.35;56.54;100733.48;1744591;81;21048;-34
2021/11/11 04:15:07;;;;;;;17.82;8.20;;;;;;;0.36;56.44;100735.09;1749738;82;21110;-34
2021/11/11 04:19:17;;;;;;;12.73;7.72;;;;;;;0.43;56.39;100723.16;1836211;78;22525;-34
2021/11/11 04:21:44;;;;;;;14.85;7.80;;;;;;;0.33;56.49;100720.42;1806009;79;21568;-34
2021/11/11 04:24:12;;;;;;;18.23;8.23;;;;;;;0.37;56.39;100726.84;1806004;79;21127;-34
2021/11/11 04:29:28;;;;;;;13.43;7.85;;;;;;;0.34;56.43;100726.01;1753071;81;21223;-34
2021/11/11 04:32:02;;;;;;;18.77;8.40;;;;;;;0.30;56.50;100718.78;1753013;81;20961;-34
2021/11/11 04:34:32;;;;;;;19.32;8.35;;;;;;;0.31;56.50;100712.39;1753187;81;21012;-34
2021/11/11 04:47:47;;;;;;;18.73;8.70;;;;;;;0.23;56.55;100715.56;1753310;81;21020;-34
2021/11/11 05:03:43;;;;;;;21.93;8.40;;;;;;;0.22;56.44;100716.61;1753291;81;21122;-34
2021/11/11 05:06:08;;;;;;;20.65;8.15;;;;;;;0.22;56.48;100719.28;1752933;81;21027;-34
2021/11/11 05:08:35;;;;;;;23.12;8.25;;;;;;;-0.19;56.53;100650.23;1753169;81;20898;-33
2021/11/11 05:11:03;;;;;;;23.27;7.83;;;;;;;0.20;56.52;100713.39;1753158;81;21060;-34
2021/11/11 05:13:31;;;;;;;19.87;8.75;;;;;;;0.20;56.59;100704.86;1753270;81;21087;-34
2021/11/11 05:16:00;;;;;;;25.00;8.43;;;;;;;0.23;56.49;100715.03;1747691;81;21133;-35
2021/11/11 05:18:26;;;;;;;20.68;8.75;;;;;;;0.27;56.40;100709.45;1747692;81;20961;-34
2021/11/11 05:20:53;;;;;;;17.98;8.88;;;;;;;0.29;56.39;100701.98;1737040;81;21006;-33
2021/11/11 05:23:22;;;;;;;17.37;8.00;;;;;;;0.30;56.25;100696.92;1742836;82;21041;-34
2021/11/11 05:25:51;;;;;;;19.57;8.43;;;;;;;0.31;56.29;100702.53;1742801;81;21040;-34
2021/11/11 05:28:19;;;;;;;19.17;8.33;;;;;;;0.33;56.23;100687.61;1742801;81;21948;-33
2021/11/11 05:30:46;;;;;;;21.30;8.20;;;;;;;0.33;56.23;100684.42;1742160;82;21009;-34
2021/11/11 05:33:13;;;;;;;19.42;9.08;;;;;;;0.34;56.19;100691.86;1752541;79;21013;-33
2021/11/11 05:35:40;;;;;;;21.40;8.38;;;;;;;0.34;56.24;100689.20;1772919;81;21060;-33
2021/11/11 05:38:08;;;;;;;19.92;7.92;;;;;;;0.33;56.22;100689.75;1772876;81;21068;-34
2021/11/11 05:40:34;;;;;;;20.12;8.65;;;;;;;0.33;56.28;100684.42;1733562;81;21207;-33
2021/11/11 05:43:02;;;;;;;18.27;8.45;;;;;;;0.38;56.21;100684.44;1772896;81;21779;-34
2021/11/11 05:45:29;;;;;;;18.65;8.60;;;;;;;0.38;56.25;100687.64;1768517;79;20941;-33
2021/11/11 05:47:58;;;;;;;18.90;8.63;;;;;;;0.39;56.14;100686.02;1766563;81;21088;-34
2021/11/11 05:50:26;;;;;;;20.20;8.60;;;;;;;0.40;56.16;100690.83;1766599;81;21615;-36
2021/11/11 05:52:53;;;;;;;18.20;8.78;;;;;;;0.43;56.07;100695.14;1766750;81;21110;-34
2021/11/11 05:55:20;;;;;;;18.23;8.68;;;;;;;0.43;56.17;100685.00;1766458;81;20930;-33
2021/11/11 05:57:48;;;;;;;19.65;8.80;;;;;;;0.48;56.08;100690.36;1766768;81;21504;-34
2021/11/11 06:00:18;;;;;;;18.70;9.18;;;;;;;0.53;56.09;100688.23;1766673;81;21024;-33
2021/11/11 06:02:50;;;;;;;19.00;9.10;;;;;;;0.57;55.96;100684.79;1766706;81;21638;-33
2021/11/11 06:05:20;;;;;;;17.73;9.23;;;;;;;0.63;55.91;100681.61;1766575;81;21056;-33
2021/11/11 06:07:49;;;;;;;25.25;9.58;;;;;;;0.66;55.90;100679.22;1766638;81;21032;-33
2021/11/11 06:10:16;;;;;;;20.43;9.68;;;;;;;0.27;55.86;100613.44;1766565;81;21491;-33
2021/11/11 06:12:42;;;;;;;18.17;9.38;;;;;;;0.66;55.87;100663.20;1766491;81;21023;-34
2021/11/11 06:15:09;;;;;;;15.70;9.18;;;;;;;0.63;56.03;100666.38;1766490;81;20997;-34
2021/11/11 06:17:38;;;;;;;14.35;8.48;;;;;;;0.65;56.09;100668.80;1766446;80;20962;-34
2021/11/11 06:20:15;;;;;;;21.10;9.40;;;;;;;0.66;56.08;100672.55;1766348;81;20981;-34
2021/11/11 06:22:38;;;;;;;19.52;9.30;;;;;;;0.68;56.06;100676.27;1766524;81;20917;-33
2021/11/11 06:25:06;;;;;;;18.73;9.20;;;;;;;0.68;56.13;100677.59;1766490;81;21024;-34
2021/11/11 06:27:33;;;;;;;23.30;9.40;;;;;;;0.72;56.20;100678.17;1748274;81;21045;-33
2021/11/11 06:30:01;;;;;;;15.32;8.90;;;;;;;0.76;56.09;100667.77;1742044;82;22349;-34
2021/11/11 06:32:27;;;;;;;21.23;10.03;;;;;;;0.81;55.98;100673.12;1729549;82;21539;-33
2021/11/11 06:34:54;;;;;;;16.42;8.58;;;;;;;0.88;55.92;100670.99;1742084;81;20965;-34
2021/11/11 06:37:21;;;;;;;16.37;8.38;;;;;;;0.92;55.82;100664.05;1742094;82;20969;-34
2021/11/11 06:39:48;;;;;;;24.45;8.98;;;;;;;0.98;55.63;100679.03;1742115;81;21530;-34
2021/11/11 06:42:14;;;;;;;28.52;17.77;;;;;;;1.05;55.50;100668.91;1742155;82;21128;-33
2021/11/11 06:44:45;;;;;;;17.57;8.25;;;;;;;1.12;55.46;100677.98;1742273;82;21013;-34
2021/11/11 06:47:10;;;;;;;21.27;11.95;;;;;;;1.15;55.11;100679.61;1742432;81;20918;-34
2021/11/11 06:49:37;;;;;;;33.95;22.67;;;;;;;1.21;55.03;100677.76;1742315;82;21017;-34
2021/11/11 06:52:05;;;;;;;14.53;9.33;;;;;;;1.26;54.94;100679.06;1742329;82;21049;-34
2021/11/11 06:54:32;;;;;;;13.50;8.55;;;;;;;1.33;54.86;100666.27;1742266;82;21795;-34
2021/11/11 06:56:59;;;;;;;13.28;8.20;;;;;;;1.36;54.61;100666.25;1742226;81;21453;-34
2021/11/11 06:59:28;;;;;;;12.50;7.95;;;;;;;1.42;54.30;100668.67;1742144;81;20930;-34
2021/11/11 07:01:55;;;;;;;15.43;8.18;;;;;;;1.45;54.42;100650.79;1741909;82;20950;-34
2021/11/11 07:04:25;;;;;;;12.45;8.28;;;;;;;1.54;54.35;100657.73;1742058;82;20998;-34
2021/11/11 07:06:52;;;;;;;11.65;7.28;;;;;;;1.61;53.95;100661.72;1742099;81;21130;-34
2021/11/11 07:09:19;;;;;;;14.60;7.28;;;;;;;1.70;53.54;100658.77;1742057;82;20953;-33
2021/11/11 07:11:47;;;;;;;14.70;8.98;;;;;;;1.79;53.18;100660.92;1742227;80;20926;-34
2021/11/11 07:14:14;;;;;;;14.50;8.23;;;;;;;1.90;52.91;100655.27;1742062;82;20997;-34
2021/11/11 07:16:45;;;;;;;15.53;8.40;;;;;;;1.99;52.52;100656.31;1736240;81;21016;-34
2021/11/11 07:19:13;;;;;;;14.18;8.23;;;;;;;2.09;51.96;100665.66;1741928;81;20993;-34
2021/11/11 07:21:41;;;;;;;15.53;7.47;;;;;;;2.21;51.55;100661.89;1742267;81;20977;-34
2021/11/11 07:24:08;;;;;;;12.50;7.80;;;;;;;2.34;50.98;100676.03;1742018;82;21028;-34
2021/11/11 07:26:35;;;;;;;15.03;7.17;;;;;;;2.44;51.04;100656.73;1742137;81;20986;-34
2021/11/11 07:29:02;;;;;;;15.15;7.62;;;;;;;2.63;50.64;100658.25;1742119;81;21041;-34
2021/11/11 07:31:29;;;;;;;13.08;7.12;;;;;;;2.78;49.86;100655.50;1742068;82;21140;-34
2021/11/11 07:33:57;;;;;;;10.58;6.95;;;;;;;2.94;49.71;100651.67;1742057;82;21008;-34
2021/11/11 07:36:25;;;;;;;13.05;7.55;;;;;;;3.12;48.49;100634.66;1743121;79;21657;-34
2021/11/11 07:38:53;;;;;;;13.75;6.92;;;;;;;3.29;48.20;100621.69;1772853;81;20998;-34
2021/11/11 07:41:20;;;;;;;12.28;6.75;;;;;;;3.45;47.59;100617.78;1772991;79;21077;-34
2021/11/11 07:43:47;;;;;;;11.18;6.42;;;;;;;3.62;46.80;100607.46;1773104;81;21918;-34
2021/11/11 07:46:15;;;;;;;14.07;6.22;;;;;;;3.79;46.38;100618.55;1772708;81;21085;-34
2021/11/11 07:48:42;;;;;;;12.18;7.00;;;;;;;3.99;45.55;100625.59;1772981;81;20969;-35
2021/11/11 07:51:08;;;;;;;17.10;7.22;;;;;;;4.12;44.18;100621.41;1772938;81;20954;-34
2021/11/11 07:53:36;;;;;;;14.30;6.67;;;;;;;4.27;44.05;100626.06;1772815;79;21017;-35
2021/11/11 07:56:03;;;;;;;11.05;6.95;;;;;;;4.36;43.21;100636.96;1772692;81;21105;-34
2021/11/11 07:58:31;;;;;;;12.90;6.05;;;;;;;4.45;43.17;100623.19;1772729;79;21022;-34
2021/11/11 08:00:59;;;;;;;11.15;6.60;;;;;;;4.55;42.98;100637.80;1772541;81;21080;-35
2021/11/11 08:03:25;;;;;;;49.15;28.05;;;;;;;4.69;42.71;100641.95;1758554;81;21625;-35
2021/11/11 08:05:53;;;;;;;44.70;26.33;;;;;;;4.82;42.15;100645.25;1772670;81;21013;-35
2021/11/11 08:08:20;;;;;;;18.20;9.95;;;;;;;4.95;42.37;100647.75;1772657;79;21126;-34
2021/11/11 08:10:46;;;;;;;12.33;8.30;;;;;;;5.07;41.35;100646.24;1772655;79;20950;-34
2021/11/11 08:13:14;;;;;;;12.20;8.48;;;;;;;5.17;40.98;100644.75;1772748;81;20918;-34
2021/11/11 08:15:41;;;;;;;10.55;5.87;;;;;;;5.25;41.25;100636.55;1772791;79;21018;-35
2021/11/11 08:18:08;;;;;;;10.20;7.17;;;;;;;5.35;41.14;100639.09;1772664;80;21006;-35
2021/11/11 08:20:36;;;;;;;12.47;6.83;;;;;;;5.49;40.27;100641.28;1789438;80;21857;-35
2021/11/11 08:23:03;;;;;;;12.37;7.60;;;;;;;5.60;40.03;100633.30;1789204;80;20969;-34
2021/11/11 08:25:30;;;;;;;11.28;7.25;;;;;;;5.66;39.65;100637.48;1789243;80;21547;-34
2021/11/11 08:27:57;;;;;;;11.63;6.62;;;;;;;5.72;39.73;100625.28;1789332;80;20978;-35
2021/11/11 08:30:23;;;;;;;15.18;8.78;;;;;;;5.80;39.65;100625.97;1789589;79;21035;-34
2021/11/11 08:32:51;;;;;;;11.18;7.08;;;;;;;5.88;39.28;100621.27;1789326;80;21128;-35
2021/11/11 08:35:21;;;;;;;11.03;6.37;;;;;;;5.97;39.63;100615.44;1783307;79;21637;-35
2021/11/11 08:37:51;;;;;;;10.65;6.78;;;;;;;6.08;38.71;100616.84;1789249;80;21020;-35
2021/11/11 08:40:18;;;;;;;14.40;9.28;;;;;;;6.20;38.44;100610.95;1789204;80;20989;-35
2021/11/11 08:42:49;;;;;;;19.70;7.87;;;;;;;6.27;38.12;100601.94;1789392;79;20989;-34
2021/11/11 08:45:16;;;;;;;9.15;5.25;;;;;;;6.36;38.26;100588.01;1789516;79;21918;-35
2021/11/11 08:47:44;;;;;;;13.25;5.75;;;;;;;6.46;37.58;100598.03;1789313;80;21025;-34
2021/11/11 08:50:11;;;;;;;11.12;6.45;;;;;;;6.54;37.55;100599.20;1789434;80;21468;-35
2021/11/11 08:52:54;;;;;;;8.55;5.80;;;;;;;6.64;37.62;100594.94;1789406;80;21582;-35
2021/11/11 08:55:08;;;;;;;8.45;5.20;;;;;;;6.77;37.37;100591.98;1789225;79;21072;-34
2021/11/11 08:57:35;;;;;;;10.03;6.37;;;;;;;6.90;37.17;100574.96;1789505;80;21081;-35
2021/11/11 09:00:08;;;;;;;10.43;6.85;;;;;;;6.96;37.12;100557.58;1789485;80;21456;-35
2021/11/11 09:02:36;;;;;;;16.65;10.05;;;;;;;7.03;36.55;100555.78;1789453;79;20945;-35
2021/11/11 09:05:05;;;;;;;11.22;6.15;;;;;;;7.08;36.85;100551.06;1789552;80;21021;-35
2021/11/11 09:07:37;;;;;;;;;;;;;;;7.15;36.45;100546.05;1792397;79;21020;-35
2021/11/11 09:10:03;;;;;;;14.75;6.67;;;;;;;7.22;36.49;100546.40;1789259;79;21128;-34
2021/11/11 09:12:30;;;;;;;9.43;5.50;;;;;;;7.19;36.69;100533.55;1795677;79;21003;-35
2021/11/11 09:14:56;;;;;;;19.20;10.78;;;;;;;7.28;36.73;100522.25;1789515;80;21011;-35
2021/11/11 09:17:23;;;;;;;9.48;5.85;;;;;;;7.39;36.63;100512.80;1789372;80;20961;-35
2021/11/11 09:19:50;;;;;;;10.85;6.10;;;;;;;7.53;36.63;100510.55;1789298;80;21000;-35
2021/11/11 09:22:16;;;;;;;17.27;10.85;;;;;;;7.57;35.88;100516.91;1789401;80;21122;-35
2021/11/11 09:24:45;;;;;;;16.25;10.80;;;;;;;7.57;36.14;100505.56;1789391;80;20968;-35
2021/11/11 09:27:11;;;;;;;7.95;5.30;;;;;;;7.59;36.33;100501.22;1789368;79;20998;-35
2021/11/11 09:29:38;;;;;;;8.50;5.28;;;;;;;7.59;36.19;100509.31;1789485;80;21028;-34
2021/11/11 09:32:06;;;;;;;10.08;5.30;;;;;;;7.58;36.38;100495.02;1789339;79;21031;-35
2021/11/11 09:34:33;;;;;;;9.53;5.47;;;;;;;7.64;36.43;100481.64;1789284;79;21115;-36
2021/11/11 09:36:59;;;;;;;10.10;5.25;;;;;;;7.70;36.22;100473.62;1789451;80;20957;-35
2021/11/11 09:39:26;;;;;;;8.58;5.92;;;;;;;7.77;36.12;100475.88;1789376;80;21638;-35
2021/11/11 09:41:56;;;;;;;10.82;6.10;;;;;;;7.84;36.47;100480.27;1789535;80;20925;-35
2021/11/11 09:44:21;;;;;;;13.43;9.88;;;;;;;7.95;36.10;100480.20;1789473;79;21052;-35
2021/11/11 09:46:47;;;;;;;10.65;5.75;;;;;;;8.03;36.32;100471.34;1789500;80;21884;-34
2021/11/11 09:49:14;;;;;;;8.85;5.72;;;;;;;8.14;36.34;100466.41;1744289;80;21377;-35
2021/11/11 09:51:42;;;;;;;10.95;6.28;;;;;;;8.23;36.21;100465.30;1789365;79;21006;-34
2021/11/11 09:59:29;;;;;;;15.00;10.58;;;;;;;8.63;35.73;100438.16;1789443;80;21122;-35
2021/11/11 10:01:57;;;;;;;20.45;13.60;;;;;;;8.69;35.66;100437.68;1783061;79;21598;-34
2021/11/11 10:04:24;;;;;;;14.65;8.60;;;;;;;8.78;35.59;100416.03;1789473;80;20972;-35
2021/11/11 10:06:51;;;;;;;10.60;6.28;;;;;;;8.91;35.37;100414.24;1789613;80;21514;-34
2021/11/11 10:09:21;;;;;;;28.23;16.62;;;;;;;8.98;35.00;100417.26;1789592;80;21033;-34
2021/11/11 10:11:54;;;;;;;11.80;8.58;;;;;;;8.98;35.11;100422.11;1789432;79;21098;-34
2021/11/11 10:14:35;;;;;;;23.62;16.57;;;;;;;9.02;35.12;100412.78;1788850;79;21551;-34
2021/11/11 10:17:08;;;;;;;12.58;8.88;;;;;;;9.09;35.27;100394.16;1789404;80;21003;-35
2021/11/11 10:19:40;;;;;;;9.08;5.47;;;;;;;9.18;35.10;100402.23;1789223;79;20957;-35
2021/11/11 10:22:12;;;;;;;7.53;5.20;;;;;;;9.29;35.19;100395.35;1789473;80;21017;-34
2021/11/11 10:24:53;;;;;;;7.47;5.08;;;;;;;9.43;35.19;100401.34;1789429;80;21087;-35
2021/11/11 10:27:42;;;;;;;7.40;4.95;;;;;;;9.59;34.73;100392.87;1789229;79;20886;-35
2021/11/11 10:30:19;;;;;;;13.05;6.50;;;;;;;9.75;34.40;100383.06;1789437;79;21518;-34
2021/11/11 10:32:52;;;;;;;7.60;4.97;;;;;;;9.83;34.19;100383.55;1789424;79;21025;-35
2021/11/11 10:35:25;;;;;;;12.95;8.85;;;;;;;9.97;34.11;100380.62;1789350;79;21017;-35
2021/11/11 10:38:06;;;;;;;8.68;6.45;;;;;;;10.10;33.90;100369.27;1789299;80;21194;-35
2021/11/11 10:40:44;;;;;;;6.08;5.17;;;;;;;10.09;34.21;100381.23;1789285;79;20996;-35
2021/11/11 10:43:18;;;;;;;7.45;5.60;;;;;;;10.04;34.64;100393.85;1789353;80;20984;-35
2021/11/11 10:45:47;;;;;;;8.40;5.00;;;;;;;10.01;34.45;100401.30;1789608;79;21491;-35
2021/11/11 10:48:17;;;;;;;7.03;4.37;;;;;;;9.99;34.66;100394.61;1789954;79;21068;-36
2021/11/11 10:50:48;;;;;;;11.53;5.55;;;;;;;10.00;34.72;100387.52;1789725;80;21719;-35
2021/11/11 10:53:26;;;;;;;6.50;5.15;;;;;;;9.94;34.67;100377.98;1783932;80;21579;-35
2021/11/11 10:55:58;;;;;;;7.75;5.70;;;;;;;9.81;34.88;100360.09;1789466;79;21476;-35
2021/11/11 10:58:28;;;;;;;9.10;6.22;;;;;;;9.68;35.31;100365.77;1789472;80;21016;-36
2021/11/11 11:01:00;;;;;;;;;;;;;;;9.55;35.42;100358.90;1791380;79;20994;-35
2021/11/11 11:03:31;;;;;;;7.90;5.72;;;;;;;9.44;35.91;100352.27;1782807;79;21834;-35
2021/11/11 11:06:12;;;;;;;11.12;6.22;;;;;;;9.28;36.24;100358.59;1789013;79;21506;-35
2021/11/11 11:08:43;;;;;;;8.23;5.92;;;;;;;9.25;36.50;100345.69;1789384;79;21518;-35
2021/11/11 11:11:18;;;;;;;7.83;5.87;;;;;;;9.13;36.45;100358.02;1789440;79;20996;-35
2021/11/11 11:13:57;;;;;;;10.30;6.53;;;;;;;8.97;37.08;100356.96;1789455;79;21036;-35
2021/11/11 11:16:27;;;;;;;11.25;6.70;;;;;;;8.83;37.23;100358.28;1789215;80;21179;-35
2021/11/11 11:18:58;;;;;;;10.90;6.25;;;;;;;8.71;37.58;100352.21;1788795;79;20997;-35
2021/11/11 11:21:28;;;;;;;7.78;5.95;;;;;;;8.63;38.00;100350.30;1789450;80;20957;-35
2021/11/11 11:24:04;;;;;;;14.10;9.78;;;;;;;8.55;38.16;100324.10;1789348;80;20990;-35
2021/11/11 11:26:35;;;;;;;29.35;21.90;;;;;;;8.48;38.31;100334.05;1789626;79;21495;-35
2021/11/11 11:31:49;;;;;;;28.65;19.30;;;;;;;8.39;38.78;100323.81;1789451;80;20968;-35
2021/11/11 11:34:19;;;;;;;13.43;9.90;;;;;;;8.38;38.91;100322.22;1783593;79;20980;-35
2021/11/11 11:36:51;;;;;;;18.27;12.37;;;;;;;8.39;38.91;100327.07;1789241;80;20978;-35
2021/11/11 11:39:28;;;;;;;24.35;18.07;;;;;;;8.41;39.14;100320.80;1789301;80;21513;-35
2021/11/11 11:42:13;;;;;;;22.77;15.45;;;;;;;8.46;39.31;100312.52;1789052;80;21136;-35
2021/11/11 11:44:39;;;;;;;28.20;17.42;;;;;;;8.51;39.28;100306.95;1788398;78;21019;-35
2021/11/11 11:47:31;;;;;;;21.33;13.18;;;;;;;8.56;39.24;100307.58;1783178;80;21040;-35
2021/11/11 11:49:51;;;;;;;18.87;13.88;;;;;;;8.61;38.83;100295.80;1776972;80;20980;-35
2021/11/11 11:52:19;;;;;;;28.52;22.87;;;;;;;8.65;38.94;100287.27;1783184;80;21111;-35
2021/11/11 11:54:53;;;;;;;14.03;11.03;;;;;;;8.66;39.19;100296.41;1782972;80;21534;-35
2021/11/11 11:57:22;;;;;;;18.07;7.53;;;;;;;8.69;38.88;100270.63;1785931;78;20960;-35
2021/11/11 11:59:50;;;;;;;10.88;7.87;;;;;;;8.77;38.94;100275.20;1788785;79;21495;-35
2021/11/11 12:05:01;;;;;;;13.70;8.13;;;;;;;9.09;38.42;100275.94;1789370;80;21550;-35
2021/11/11 12:07:30;;;;;;;12.07;7.55;;;;;;;9.27;38.36;100277.17;1768028;80;21133;-35
2021/11/11 12:10:02;;;;;;;10.78;8.28;;;;;;;9.34;38.19;100271.48;1783045;79;21004;-35
2021/11/11 12:15:26;;;;;;;18.60;9.90;;;;;;;9.23;38.43;100270.84;1789544;80;21526;-35